sensor_id;sensor_type;location;lat;lon;timestamp;pressure;altitude;pressure_sealevel;temperature;humidity
72336;BME280;65062;48.446;8.834;2023-07-31T00:00:59;97654.00;;;12.64;98.88
72336;BME280;65062;48.446;8.834;2023-07-31T00:03:59;97650.78;;;12.68;98.02
72336;BME280;65062;48.446;8.834;2023-07-31T00:07:00;97661.03;;;12.57;98.73
72336;BME280;65062;48.446;8.834;2023-07-31T00:10:00;97661.19;;;12.49;98.68
72336;BME280;65062;48.446;8.834;2023-07-31T00:13:00;97653.88;;;12.44;98.71
72336;BME280;65062;48.446;8.834;2023-07-31T00:16:01;97655.09;;;12.42;98.00
72336;BME280;65062;48.446;8.834;2023-07-31T00:19:01;97661.72;;;12.38;98.10
72336;BME280;65062;48.446;8.834;2023-07-31T00:22:02;97660.91;;;12.37;98.46
72336;BME280;65062;48.446;8.834;2023-07-31T00:25:02;97661.94;;;12.43;99.80
72336;BME280;65062;48.446;8.834;2023-07-31T00:28:03;97664.53;;;12.36;98.10
72336;BME280;65062;48.446;8.834;2023-07-31T00:31:03;97671.94;;;12.26;96.73
72336;BME280;65062;48.446;8.834;2023-07-31T00:34:04;97671.66;;;12.15;98.00
72336;BME280;65062;48.446;8.834;2023-07-31T00:37:04;97666.59;;;12.13;98.33
72336;BME280;65062;48.446;8.834;2023-07-31T00:40:05;97667.13;;;12.02;98.05
72336;BME280;65062;48.446;8.834;2023-07-31T00:43:06;97669.06;;;11.94;100.00
72336;BME280;65062;48.446;8.834;2023-07-31T00:46:07;97660.94;;;11.89;99.34
72336;BME280;65062;48.446;8.834;2023-07-31T00:49:07;97670.31;;;11.98;100.00
72336;BME280;65062;48.446;8.834;2023-07-31T00:52:09;97671.50;;;11.95;100.00
72336;BME280;65062;48.446;8.834;2023-07-31T00:55:10;97670.13;;;11.99;99.75
72336;BME280;65062;48.446;8.834;2023-07-31T00:58:10;97666.44;;;11.94;100.00
72336;BME280;65062;48.446;8.834;2023-07-31T01:01:11;97664.03;;;11.92;100.00
72336;BME280;65062;48.446;8.834;2023-07-31T01:04:11;97666.25;;;11.95;100.00
72336;BME280;65062;48.446;8.834;2023-07-31T01:10:36;97658.41;;;11.95;99.02
72336;BME280;65062;48.446;8.834;2023-07-31T01:13:40;97658.31;;;11.89;100.00
72336;BME280;65062;48.446;8.834;2023-07-31T01:16:41;97655.66;;;11.82;100.00
72336;BME280;65062;48.446;8.834;2023-07-31T01:19:41;97650.63;;;11.81;100.00
72336;BME280;65062;48.446;8.834;2023-07-31T01:26:21;97651.28;;;11.89;99.27
72336;BME280;65062;48.446;8.834;2023-07-31T01:29:43;97638.25;;;11.75;99.70
72336;BME280;65062;48.446;8.834;2023-07-31T01:32:47;97625.81;;;11.62;100.00
72336;BME280;65062;48.446;8.834;2023-07-31T01:35:49;97631.22;;;11.61;99.81
72336;BME280;65062;48.446;8.834;2023-07-31T01:38:50;97636.13;;;11.64;100.00
72336;BME280;65062;48.446;8.834;2023-07-31T01:41:51;97633.06;;;11.60;100.00
72336;BME280;65062;48.446;8.834;2023-07-31T01:44:51;97632.56;;;11.71;100.00
72336;BME280;65062;48.446;8.834;2023-07-31T01:47:51;97624.63;;;11.65;100.00
72336;BME280;65062;48.446;8.834;2023-07-31T01:50:52;97630.38;;;11.75;100.00
72336;BME280;65062;48.446;8.834;2023-07-31T01:53:52;97632.56;;;11.71;99.32
72336;BME280;65062;48.446;8.834;2023-07-31T01:56:52;97625.53;;;11.72;100.00
72336;BME280;65062;48.446;8.834;2023-07-31T01:59:53;97630.88;;;11.85;100.00
72336;BME280;65062;48.446;8.834;2023-07-31T02:02:53;97623.94;;;11.77;99.64
72336;BME280;65062;48.446;8.834;2023-07-31T02:05:54;97621.88;;;11.73;100.00
72336;BME280;65062;48.446;8.834;2023-07-31T02:08:54;97619.72;;;11.76;99.20
72336;BME280;65062;48.446;8.834;2023-07-31T02:11:54;97619.00;;;11.68;99.74
72336;BME280;65062;48.446;8.834;2023-07-31T02:14:55;97612.09;;;11.60;100.00
72336;BME280;65062;48.446;8.834;2023-07-31T02:17:55;97597.72;;;11.56;99.92
72336;BME280;65062;48.446;8.834;2023-07-31T02:20:55;97598.09;;;11.53;100.00
72336;BME280;65062;48.446;8.834;2023-07-31T02:23:56;97584.56;;;11.50;99.53
72336;BME280;65062;48.446;8.834;2023-07-31T02:26:56;97578.44;;;11.64;100.00
72336;BME280;65062;48.446;8.834;2023-07-31T02:29:57;97570.47;;;11.72;100.00
72336;BME280;65062;48.446;8.834;2023-07-31T02:32:59;97562.59;;;11.72;98.76
72336;BME280;65062;48.446;8.834;2023-07-31T02:35:59;97558.13;;;11.66;100.00
72336;BME280;65062;48.446;8.834;2023-07-31T02:39:00;97573.41;;;11.62;100.00
72336;BME280;65062;48.446;8.834;2023-07-31T02:42:01;97584.88;;;11.61;100.00
72336;BME280;65062;48.446;8.834;2023-07-31T02:45:01;97574.81;;;11.65;98.77
72336;BME280;65062;48.446;8.834;2023-07-31T02:48:02;97583.31;;;11.67;100.00
72336;BME280;65062;48.446;8.834;2023-07-31T02:51:02;97573.75;;;11.59;98.76
72336;BME280;65062;48.446;8.834;2023-07-31T02:54:02;97577.44;;;11.65;99.06
72336;BME280;65062;48.446;8.834;2023-07-31T02:57:03;97579.47;;;11.63;98.64
72336;BME280;65062;48.446;8.834;2023-07-31T03:00:04;97580.06;;;11.65;99.66
72336;BME280;65062;48.446;8.834;2023-07-31T03:03:06;97570.59;;;11.64;99.13
72336;BME280;65062;48.446;8.834;2023-07-31T03:06:06;97573.84;;;11.66;100.00
72336;BME280;65062;48.446;8.834;2023-07-31T03:09:07;97573.56;;;11.61;99.07
72336;BME280;65062;48.446;8.834;2023-07-31T03:12:08;97565.78;;;11.67;100.00
72336;BME280;65062;48.446;8.834;2023-07-31T03:15:08;97569.13;;;11.61;99.75
72336;BME280;65062;48.446;8.834;2023-07-31T03:18:09;97570.03;;;11.68;99.99
72336;BME280;65062;48.446;8.834;2023-07-31T03:21:09;97574.81;;;11.65;99.31
72336;BME280;65062;48.446;8.834;2023-07-31T03:24:10;97574.25;;;11.69;100.00
72336;BME280;65062;48.446;8.834;2023-07-31T03:27:12;97564.03;;;11.74;99.29
72336;BME280;65062;48.446;8.834;2023-07-31T03:30:12;97569.72;;;11.78;98.55
72336;BME280;65062;48.446;8.834;2023-07-31T03:33:12;97575.72;;;11.72;99.74
72336;BME280;65062;48.446;8.834;2023-07-31T03:36:13;97579.56;;;11.76;100.00
72336;BME280;65062;48.446;8.834;2023-07-31T03:39:13;97583.50;;;11.93;98.62
72336;BME280;65062;48.446;8.834;2023-07-31T03:42:14;97586.03;;;11.80;97.55
72336;BME280;65062;48.446;8.834;2023-07-31T03:45:15;97590.63;;;11.71;98.76
72336;BME280;65062;48.446;8.834;2023-07-31T03:48:15;97586.78;;;11.74;98.56
72336;BME280;65062;48.446;8.834;2023-07-31T03:51:16;97582.75;;;11.71;99.00
72336;BME280;65062;48.446;8.834;2023-07-31T03:54:17;97578.53;;;11.70;99.74
72336;BME280;65062;48.446;8.834;2023-07-31T03:57:18;97592.22;;;11.72;98.59
72336;BME280;65062;48.446;8.834;2023-07-31T04:00:18;97576.31;;;11.74;98.77
72336;BME280;65062;48.446;8.834;2023-07-31T04:03:18;97583.47;;;11.86;99.50
72336;BME280;65062;48.446;8.834;2023-07-31T04:06:19;97578.63;;;11.83;98.45
72336;BME280;65062;48.446;8.834;2023-07-31T04:09:19;97580.59;;;11.81;97.86
72336;BME280;65062;48.446;8.834;2023-07-31T04:12:20;97585.84;;;11.81;98.99
72336;BME280;65062;48.446;8.834;2023-07-31T04:15:20;97569.97;;;11.89;98.18
72336;BME280;65062;48.446;8.834;2023-07-31T04:18:20;97565.53;;;11.90;98.29
72336;BME280;65062;48.446;8.834;2023-07-31T04:21:21;97564.34;;;11.92;99.38
72336;BME280;65062;48.446;8.834;2023-07-31T04:24:21;97562.91;;;11.90;99.12
72336;BME280;65062;48.446;8.834;2023-07-31T04:27:24;97563.34;;;11.93;98.60
72336;BME280;65062;48.446;8.834;2023-07-31T04:30:25;97558.56;;;12.03;99.15
72336;BME280;65062;48.446;8.834;2023-07-31T04:33:25;97566.50;;;12.16;97.53
72336;BME280;65062;48.446;8.834;2023-07-31T04:36:25;97570.97;;;12.22;97.61
72336;BME280;65062;48.446;8.834;2023-07-31T04:39:26;97557.53;;;12.38;96.00
72336;BME280;65062;48.446;8.834;2023-07-31T04:42:26;97557.13;;;12.35;95.59
72336;BME280;65062;48.446;8.834;2023-07-31T04:45:26;97555.78;;;12.45;96.41
72336;BME280;65062;48.446;8.834;2023-07-31T04:48:27;97560.41;;;12.50;96.25
72336;BME280;65062;48.446;8.834;2023-07-31T04:51:27;97564.69;;;12.51;95.58
72336;BME280;65062;48.446;8.834;2023-07-31T04:54:27;97558.84;;;12.62;94.89
72336;BME280;65062;48.446;8.834;2023-07-31T04:57:28;97563.56;;;12.73;94.85
72336;BME280;65062;48.446;8.834;2023-07-31T05:00:28;97559.91;;;12.74;93.38
72336;BME280;65062;48.446;8.834;2023-07-31T05:03:29;97562.56;;;12.87;94.11
72336;BME280;65062;48.446;8.834;2023-07-31T05:06:29;97556.81;;;13.11;93.67
72336;BME280;65062;48.446;8.834;2023-07-31T05:09:29;97557.81;;;13.04;91.90
72336;BME280;65062;48.446;8.834;2023-07-31T05:12:30;97566.72;;;13.22;92.49
72336;BME280;65062;48.446;8.834;2023-07-31T05:15:30;97564.75;;;13.44;92.22
72336;BME280;65062;48.446;8.834;2023-07-31T05:18:31;97562.31;;;13.42;90.48
72336;BME280;65062;48.446;8.834;2023-07-31T05:21:31;97545.50;;;13.69;91.25
72336;BME280;65062;48.446;8.834;2023-07-31T05:24:32;97560.09;;;13.85;90.93
72336;BME280;65062;48.446;8.834;2023-07-31T05:27:32;97563.94;;;13.82;90.69
72336;BME280;65062;48.446;8.834;2023-07-31T05:30:32;97563.91;;;13.89;90.38
72336;BME280;65062;48.446;8.834;2023-07-31T05:33:33;97564.72;;;13.96;89.33
72336;BME280;65062;48.446;8.834;2023-07-31T05:36:33;97568.16;;;13.96;89.29
72336;BME280;65062;48.446;8.834;2023-07-31T05:39:33;97573.00;;;13.93;89.58
72336;BME280;65062;48.446;8.834;2023-07-31T05:42:34;97576.25;;;14.01;89.50
72336;BME280;65062;48.446;8.834;2023-07-31T05:45:36;97585.34;;;14.18;88.96
72336;BME280;65062;48.446;8.834;2023-07-31T05:48:37;97568.94;;;14.16;87.70
72336;BME280;65062;48.446;8.834;2023-07-31T05:51:37;97570.78;;;14.29;87.44
72336;BME280;65062;48.446;8.834;2023-07-31T05:54:37;97558.38;;;14.42;87.87
72336;BME280;65062;48.446;8.834;2023-07-31T05:57:38;97552.41;;;14.66;87.01
72336;BME280;65062;48.446;8.834;2023-07-31T06:00:38;97556.75;;;14.86;85.98
72336;BME280;65062;48.446;8.834;2023-07-31T06:03:38;97548.38;;;15.02;87.12
72336;BME280;65062;48.446;8.834;2023-07-31T06:06:39;97548.31;;;15.15;85.98
72336;BME280;65062;48.446;8.834;2023-07-31T06:09:39;97544.53;;;15.35;83.84
72336;BME280;65062;48.446;8.834;2023-07-31T06:12:40;97544.78;;;15.58;82.98
72336;BME280;65062;48.446;8.834;2023-07-31T06:15:40;97534.41;;;15.81;82.38
72336;BME280;65062;48.446;8.834;2023-07-31T06:18:41;97533.72;;;16.10;83.13
72336;BME280;65062;48.446;8.834;2023-07-31T06:21:42;97535.50;;;16.34;79.84
72336;BME280;65062;48.446;8.834;2023-07-31T06:24:44;97530.56;;;16.74;79.46
72336;BME280;65062;48.446;8.834;2023-07-31T06:27:44;97528.00;;;16.97;78.67
72336;BME280;65062;48.446;8.834;2023-07-31T06:30:45;97522.16;;;17.25;78.44
72336;BME280;65062;48.446;8.834;2023-07-31T06:33:45;97532.56;;;17.49;77.58
72336;BME280;65062;48.446;8.834;2023-07-31T06:36:46;97532.03;;;17.70;77.16
72336;BME280;65062;48.446;8.834;2023-07-31T06:39:46;97522.81;;;17.96;74.54
72336;BME280;65062;48.446;8.834;2023-07-31T06:42:46;97523.84;;;18.06;75.98
72336;BME280;65062;48.446;8.834;2023-07-31T06:45:47;97517.97;;;18.16;75.62
72336;BME280;65062;48.446;8.834;2023-07-31T06:48:50;97518.22;;;18.14;71.51
72336;BME280;65062;48.446;8.834;2023-07-31T06:51:50;97515.97;;;18.34;73.66
72336;BME280;65062;48.446;8.834;2023-07-31T06:55:02;97526.00;;;18.55;72.49
72336;BME280;65062;48.446;8.834;2023-07-31T06:58:03;97537.81;;;18.76;69.43
72336;BME280;65062;48.446;8.834;2023-07-31T07:01:03;97530.00;;;18.98;67.81
72336;BME280;65062;48.446;8.834;2023-07-31T07:04:04;97526.50;;;19.09;67.27
72336;BME280;65062;48.446;8.834;2023-07-31T07:07:04;97539.00;;;19.25;66.83
72336;BME280;65062;48.446;8.834;2023-07-31T07:10:05;97539.84;;;19.42;66.93
72336;BME280;65062;48.446;8.834;2023-07-31T07:13:06;97552.47;;;19.68;64.49
72336;BME280;65062;48.446;8.834;2023-07-31T07:16:06;97540.19;;;19.78;62.55
72336;BME280;65062;48.446;8.834;2023-07-31T07:19:07;97534.53;;;19.91;62.77
72336;BME280;65062;48.446;8.834;2023-07-31T07:22:07;97521.66;;;20.00;63.08
72336;BME280;65062;48.446;8.834;2023-07-31T07:25:08;97513.25;;;20.24;64.01
72336;BME280;65062;48.446;8.834;2023-07-31T07:28:08;97523.31;;;20.22;57.81
72336;BME280;65062;48.446;8.834;2023-07-31T07:31:08;97517.78;;;20.07;60.81
72336;BME280;65062;48.446;8.834;2023-07-31T07:34:09;97510.09;;;19.73;59.38
72336;BME280;65062;48.446;8.834;2023-07-31T07:37:09;97510.09;;;19.56;58.73
72336;BME280;65062;48.446;8.834;2023-07-31T07:40:10;97518.78;;;19.52;61.25
72336;BME280;65062;48.446;8.834;2023-07-31T07:43:10;97520.63;;;19.51;58.54
72336;BME280;65062;48.446;8.834;2023-07-31T07:46:10;97530.13;;;19.64;59.05
72336;BME280;65062;48.446;8.834;2023-07-31T07:49:11;97531.41;;;19.78;58.88
72336;BME280;65062;48.446;8.834;2023-07-31T07:52:12;97529.00;;;19.76;56.91
72336;BME280;65062;48.446;8.834;2023-07-31T07:55:12;97501.72;;;19.81;56.21
72336;BME280;65062;48.446;8.834;2023-07-31T07:58:12;97509.22;;;19.84;57.28
72336;BME280;65062;48.446;8.834;2023-07-31T08:01:13;97507.09;;;19.86;57.31
72336;BME280;65062;48.446;8.834;2023-07-31T08:04:13;97505.22;;;20.03;56.98
72336;BME280;65062;48.446;8.834;2023-07-31T08:07:14;97497.13;;;20.31;54.06
72336;BME280;65062;48.446;8.834;2023-07-31T08:10:14;97498.88;;;20.42;53.33
72336;BME280;65062;48.446;8.834;2023-07-31T08:13:15;97493.44;;;20.32;54.17
72336;BME280;65062;48.446;8.834;2023-07-31T08:16:15;97483.69;;;20.21;56.28
72336;BME280;65062;48.446;8.834;2023-07-31T08:19:16;97494.47;;;20.52;54.61
72336;BME280;65062;48.446;8.834;2023-07-31T08:22:16;97494.50;;;21.01;52.90
72336;BME280;65062;48.446;8.834;2023-07-31T08:25:17;97485.78;;;20.84;54.90
72336;BME280;65062;48.446;8.834;2023-07-31T08:28:17;97477.91;;;20.94;52.52
72336;BME280;65062;48.446;8.834;2023-07-31T08:31:19;97481.47;;;20.78;51.98
72336;BME280;65062;48.446;8.834;2023-07-31T08:34:19;97482.66;;;20.65;52.50
72336;BME280;65062;48.446;8.834;2023-07-31T08:37:19;97478.50;;;20.31;53.67
72336;BME280;65062;48.446;8.834;2023-07-31T08:40:20;97488.59;;;20.29;52.96
72336;BME280;65062;48.446;8.834;2023-07-31T08:43:22;97496.19;;;20.04;56.03
72336;BME280;65062;48.446;8.834;2023-07-31T08:46:25;97478.81;;;20.13;54.07
72336;BME280;65062;48.446;8.834;2023-07-31T08:49:26;97468.03;;;20.41;56.01
72336;BME280;65062;48.446;8.834;2023-07-31T08:52:27;97465.22;;;20.31;53.56
72336;BME280;65062;48.446;8.834;2023-07-31T08:55:28;97481.31;;;20.41;54.88
72336;BME280;65062;48.446;8.834;2023-07-31T08:58:31;97484.59;;;20.48;52.98
72336;BME280;65062;48.446;8.834;2023-07-31T09:01:36;97473.09;;;20.42;53.55
72336;BME280;65062;48.446;8.834;2023-07-31T09:04:39;97474.72;;;20.70;53.07
72336;BME280;65062;48.446;8.834;2023-07-31T09:07:40;97489.47;;;20.83;50.91
72336;BME280;65062;48.446;8.834;2023-07-31T09:10:47;97467.78;;;21.17;52.16
72336;BME280;65062;48.446;8.834;2023-07-31T09:13:48;97459.03;;;21.22;49.54
72336;BME280;65062;48.446;8.834;2023-07-31T09:16:53;97448.94;;;21.55;49.93
72336;BME280;65062;48.446;8.834;2023-07-31T09:19:54;97454.03;;;21.62;48.50
72336;BME280;65062;48.446;8.834;2023-07-31T09:22:55;97446.63;;;21.69;48.02
72336;BME280;65062;48.446;8.834;2023-07-31T09:25:55;97456.41;;;21.58;49.26
72336;BME280;65062;48.446;8.834;2023-07-31T09:28:57;97453.19;;;21.56;47.93
72336;BME280;65062;48.446;8.834;2023-07-31T09:31:57;97453.28;;;21.71;46.38
72336;BME280;65062;48.446;8.834;2023-07-31T09:34:58;97442.97;;;21.75;47.71
72336;BME280;65062;48.446;8.834;2023-07-31T09:38:06;97437.84;;;22.10;47.46
72336;BME280;65062;48.446;8.834;2023-07-31T09:41:07;97431.94;;;22.65;48.03
72336;BME280;65062;48.446;8.834;2023-07-31T09:44:08;97432.78;;;22.75;45.50
72336;BME280;65062;48.446;8.834;2023-07-31T09:47:22;97429.06;;;23.06;44.74
72336;BME280;65062;48.446;8.834;2023-07-31T09:50:25;97430.66;;;23.12;45.42
72336;BME280;65062;48.446;8.834;2023-07-31T09:53:29;97421.06;;;23.16;45.54
72336;BME280;65062;48.446;8.834;2023-07-31T09:56:32;97406.66;;;22.97;45.60
72336;BME280;65062;48.446;8.834;2023-07-31T09:59:33;97408.94;;;22.48;46.32
72336;BME280;65062;48.446;8.834;2023-07-31T10:02:34;97380.50;;;22.02;46.81
72336;BME280;65062;48.446;8.834;2023-07-31T10:05:40;97376.97;;;21.92;47.32
72336;BME280;65062;48.446;8.834;2023-07-31T10:08:41;97384.47;;;22.00;47.29
72336;BME280;65062;48.446;8.834;2023-07-31T10:11:53;97378.41;;;22.19;46.62
72336;BME280;65062;48.446;8.834;2023-07-31T10:14:56;97376.31;;;22.31;46.23
72336;BME280;65062;48.446;8.834;2023-07-31T10:17:57;97355.78;;;22.37;47.82
72336;BME280;65062;48.446;8.834;2023-07-31T10:20:58;97361.47;;;22.55;47.75
72336;BME280;65062;48.446;8.834;2023-07-31T10:23:58;97348.41;;;22.64;46.25
72336;BME280;65062;48.446;8.834;2023-07-31T10:27:00;97365.75;;;22.77;45.56
72336;BME280;65062;48.446;8.834;2023-07-31T10:30:08;97362.84;;;22.73;45.69
72336;BME280;65062;48.446;8.834;2023-07-31T10:33:09;97362.84;;;22.63;43.76
72336;BME280;65062;48.446;8.834;2023-07-31T10:36:28;97342.03;;;22.90;46.51
72336;BME280;65062;48.446;8.834;2023-07-31T10:39:36;97344.41;;;23.17;46.16
72336;BME280;65062;48.446;8.834;2023-07-31T10:42:46;97347.13;;;23.37;48.46
72336;BME280;65062;48.446;8.834;2023-07-31T10:45:49;97320.66;;;23.40;43.89
72336;BME280;65062;48.446;8.834;2023-07-31T10:49:00;97326.47;;;23.62;44.05
72336;BME280;65062;48.446;8.834;2023-07-31T10:52:03;97327.50;;;23.76;44.21
72336;BME280;65062;48.446;8.834;2023-07-31T10:55:59;97337.97;;;23.63;43.82
72336;BME280;65062;48.446;8.834;2023-07-31T10:58:36;97317.44;;;23.18;43.58
72336;BME280;65062;48.446;8.834;2023-07-31T11:01:53;97301.44;;;23.38;44.18
72336;BME280;65062;48.446;8.834;2023-07-31T11:05:08;97310.59;;;24.01;46.55
72336;BME280;65062;48.446;8.834;2023-07-31T11:08:26;97310.28;;;24.51;43.12
72336;BME280;65062;48.446;8.834;2023-07-31T11:11:26;97330.44;;;25.11;43.11
72336;BME280;65062;48.446;8.834;2023-07-31T11:14:27;97317.28;;;25.71;40.62
72336;BME280;65062;48.446;8.834;2023-07-31T11:17:27;97322.19;;;26.30;40.69
72336;BME280;65062;48.446;8.834;2023-07-31T11:20:29;97338.97;;;26.78;38.20
72336;BME280;65062;48.446;8.834;2023-07-31T11:23:30;97323.25;;;27.49;38.05
72336;BME280;65062;48.446;8.834;2023-07-31T11:26:31;97317.22;;;27.70;35.51
72336;BME280;65062;48.446;8.834;2023-07-31T11:29:31;97321.75;;;27.88;35.19
72336;BME280;65062;48.446;8.834;2023-07-31T11:32:31;97309.56;;;27.91;34.88
72336;BME280;65062;48.446;8.834;2023-07-31T11:35:36;97298.75;;;28.31;37.08
72336;BME280;65062;48.446;8.834;2023-07-31T11:38:36;97310.00;;;28.47;34.23
72336;BME280;65062;48.446;8.834;2023-07-31T11:41:40;97311.34;;;27.41;34.09
72336;BME280;65062;48.446;8.834;2023-07-31T11:44:40;97318.66;;;26.72;36.93
72336;BME280;65062;48.446;8.834;2023-07-31T11:47:47;97311.38;;;26.16;37.81
72336;BME280;65062;48.446;8.834;2023-07-31T11:50:50;97301.56;;;25.65;38.94
72336;BME280;65062;48.446;8.834;2023-07-31T11:53:53;97299.66;;;25.13;39.09
72336;BME280;65062;48.446;8.834;2023-07-31T11:56:56;97279.81;;;25.43;40.20
72336;BME280;65062;48.446;8.834;2023-07-31T11:59:57;97288.88;;;25.47;39.63
72336;BME280;65062;48.446;8.834;2023-07-31T12:02:58;97294.84;;;25.62;38.93
72336;BME280;65062;48.446;8.834;2023-07-31T12:05:59;97297.56;;;26.28;40.48
72336;BME280;65062;48.446;8.834;2023-07-31T12:09:03;97277.13;;;28.23;38.94
72336;BME280;65062;48.446;8.834;2023-07-31T12:12:08;97265.31;;;29.90;34.12
72336;BME280;65062;48.446;8.834;2023-07-31T12:15:15;97255.19;;;29.48;32.07
72336;BME280;65062;48.446;8.834;2023-07-31T12:18:19;97241.38;;;29.41;32.61
72336;BME280;65062;48.446;8.834;2023-07-31T12:21:20;97248.41;;;30.67;31.83
72336;BME280;65062;48.446;8.834;2023-07-31T12:24:21;97245.06;;;32.08;30.38
72336;BME280;65062;48.446;8.834;2023-07-31T12:27:21;97238.59;;;32.42;27.35
72336;BME280;65062;48.446;8.834;2023-07-31T12:30:34;97238.31;;;33.08;27.54
72336;BME280;65062;48.446;8.834;2023-07-31T12:33:36;97235.22;;;33.42;26.58
72336;BME280;65062;48.446;8.834;2023-07-31T12:36:38;97235.94;;;32.33;26.88
72336;BME280;65062;48.446;8.834;2023-07-31T12:39:39;97241.16;;;31.68;29.01
72336;BME280;65062;48.446;8.834;2023-07-31T12:42:41;97234.25;;;30.01;30.74
72336;BME280;65062;48.446;8.834;2023-07-31T12:45:41;97224.16;;;31.59;29.97
72336;BME280;65062;48.446;8.834;2023-07-31T12:48:42;97228.13;;;31.61;29.70
72336;BME280;65062;48.446;8.834;2023-07-31T12:51:42;97218.53;;;31.35;28.85
72336;BME280;65062;48.446;8.834;2023-07-31T12:54:45;97212.38;;;31.92;28.88
72336;BME280;65062;48.446;8.834;2023-07-31T12:57:46;97206.25;;;31.00;29.22
72336;BME280;65062;48.446;8.834;2023-07-31T13:00:46;97210.91;;;30.57;30.35
72336;BME280;65062;48.446;8.834;2023-07-31T13:03:47;97215.34;;;29.45;33.04
72336;BME280;65062;48.446;8.834;2023-07-31T13:06:47;97214.44;;;28.44;34.55
72336;BME280;65062;48.446;8.834;2023-07-31T13:09:48;97201.09;;;27.55;34.79
72336;BME280;65062;48.446;8.834;2023-07-31T13:12:49;97201.59;;;27.57;35.25
72336;BME280;65062;48.446;8.834;2023-07-31T13:15:49;97199.56;;;27.08;37.00
72336;BME280;65062;48.446;8.834;2023-07-31T13:18:49;97198.94;;;26.52;37.66
72336;BME280;65062;48.446;8.834;2023-07-31T13:21:52;97195.38;;;26.57;40.14
72336;BME280;65062;48.446;8.834;2023-07-31T13:24:52;97198.41;;;26.36;38.68
72336;BME280;65062;48.446;8.834;2023-07-31T13:27:52;97185.44;;;26.89;38.61
72336;BME280;65062;48.446;8.834;2023-07-31T13:30:53;97212.34;;;26.52;38.30
72336;BME280;65062;48.446;8.834;2023-07-31T13:33:53;97211.19;;;26.07;37.81
72336;BME280;65062;48.446;8.834;2023-07-31T13:36:54;97216.72;;;25.92;38.33
72336;BME280;65062;48.446;8.834;2023-07-31T13:39:55;97220.94;;;25.56;38.23
72336;BME280;65062;48.446;8.834;2023-07-31T13:42:56;97224.19;;;25.95;38.49
72336;BME280;65062;48.446;8.834;2023-07-31T13:45:56;97208.75;;;25.69;38.71
72336;BME280;65062;48.446;8.834;2023-07-31T13:48:57;97214.53;;;25.57;39.41
72336;BME280;65062;48.446;8.834;2023-07-31T13:51:57;97209.66;;;25.59;38.41
72336;BME280;65062;48.446;8.834;2023-07-31T13:54:58;97195.38;;;25.45;40.10
72336;BME280;65062;48.446;8.834;2023-07-31T13:57:58;97192.53;;;24.85;39.87
72336;BME280;65062;48.446;8.834;2023-07-31T14:00:58;97191.94;;;24.93;42.22
72336;BME280;65062;48.446;8.834;2023-07-31T14:03:59;97197.69;;;25.52;41.07
72336;BME280;65062;48.446;8.834;2023-07-31T14:06:59;97192.13;;;26.09;39.36
72336;BME280;65062;48.446;8.834;2023-07-31T14:10:00;97198.75;;;25.93;37.76
72336;BME280;65062;48.446;8.834;2023-07-31T14:13:00;97194.06;;;26.22;39.64
72336;BME280;65062;48.446;8.834;2023-07-31T14:16:01;97183.50;;;25.51;39.18
72336;BME280;65062;48.446;8.834;2023-07-31T14:19:01;97180.56;;;25.71;40.67
72336;BME280;65062;48.446;8.834;2023-07-31T14:22:02;97166.59;;;26.43;38.72
72336;BME280;65062;48.446;8.834;2023-07-31T14:25:02;97158.88;;;27.28;36.69
72336;BME280;65062;48.446;8.834;2023-07-31T14:28:02;97157.34;;;27.76;37.69
72336;BME280;65062;48.446;8.834;2023-07-31T14:31:03;97158.13;;;27.90;35.46
72336;BME280;65062;48.446;8.834;2023-07-31T14:34:03;97150.31;;;27.53;35.15
72336;BME280;65062;48.446;8.834;2023-07-31T14:37:04;97136.69;;;26.82;37.88
72336;BME280;65062;48.446;8.834;2023-07-31T14:40:04;97139.47;;;26.91;39.97
72336;BME280;65062;48.446;8.834;2023-07-31T14:43:04;97150.50;;;26.76;40.16
72336;BME280;65062;48.446;8.834;2023-07-31T14:46:05;97156.09;;;26.47;38.55
72336;BME280;65062;48.446;8.834;2023-07-31T14:49:05;97162.16;;;25.65;39.23
72336;BME280;65062;48.446;8.834;2023-07-31T14:52:06;97155.88;;;24.85;41.32
72336;BME280;65062;48.446;8.834;2023-07-31T14:55:07;97159.28;;;24.91;41.88
72336;BME280;65062;48.446;8.834;2023-07-31T14:58:08;97157.91;;;24.93;42.62
72336;BME280;65062;48.446;8.834;2023-07-31T15:01:11;97152.84;;;24.63;42.97
72336;BME280;65062;48.446;8.834;2023-07-31T15:04:11;97149.06;;;24.35;43.53
72336;BME280;65062;48.446;8.834;2023-07-31T15:07:12;97145.75;;;24.48;43.31
72336;BME280;65062;48.446;8.834;2023-07-31T15:10:13;97142.00;;;24.49;44.12
72336;BME280;65062;48.446;8.834;2023-07-31T15:13:14;97148.59;;;24.28;42.70
72336;BME280;65062;48.446;8.834;2023-07-31T15:16:14;97145.66;;;24.30;42.27
72336;BME280;65062;48.446;8.834;2023-07-31T15:19:15;97138.19;;;24.27;45.20
72336;BME280;65062;48.446;8.834;2023-07-31T15:22:15;97118.41;;;24.28;44.00
72336;BME280;65062;48.446;8.834;2023-07-31T15:25:16;97110.59;;;24.31;43.71
72336;BME280;65062;48.446;8.834;2023-07-31T15:28:16;97110.19;;;24.48;43.63
72336;BME280;65062;48.446;8.834;2023-07-31T15:31:17;97109.91;;;24.49;42.82
72336;BME280;65062;48.446;8.834;2023-07-31T15:34:18;97096.75;;;24.53;42.98
72336;BME280;65062;48.446;8.834;2023-07-31T15:37:19;97092.88;;;24.69;43.88
72336;BME280;65062;48.446;8.834;2023-07-31T15:40:19;97095.91;;;24.81;42.91
72336;BME280;65062;48.446;8.834;2023-07-31T15:43:20;97083.28;;;24.87;44.16
72336;BME280;65062;48.446;8.834;2023-07-31T15:46:21;97082.38;;;24.96;45.17
72336;BME280;65062;48.446;8.834;2023-07-31T15:49:21;97080.94;;;24.80;43.26
72336;BME280;65062;48.446;8.834;2023-07-31T15:52:22;97087.03;;;24.86;42.98
72336;BME280;65062;48.446;8.834;2023-07-31T15:55:22;97075.19;;;24.92;42.86
72336;BME280;65062;48.446;8.834;2023-07-31T15:58:25;97063.28;;;25.21;40.36
72336;BME280;65062;48.446;8.834;2023-07-31T16:01:25;97058.31;;;25.52;40.10
72336;BME280;65062;48.446;8.834;2023-07-31T16:04:25;97044.34;;;26.92;36.79
72336;BME280;65062;48.446;8.834;2023-07-31T16:07:25;97054.47;;;28.68;34.85